Time;durP1;ratioP1;P1;durP2;ratioP2;P2;SDS_P1;SDS_P2;PMS_P1;PMS_P2;Temp;Humidity;BMP_temperature;BMP_pressure;BME280_temperature;BME280_humidity;BME280_pressure;Samples;Min_cycle;Max_cycle;Signal;HPM_P1;HPM_P2
2021/08/22 00:02:23;;;;;;;;;2.50;2.00;;;;;25.85;48.33;101394.59;5097234;27;52766;-45
2021/08/22 00:04:48;;;;;;;;;3.00;2.00;;;;;25.85;48.23;101389.03;5099224;27;50906;-45
2021/08/22 00:07:13;;;;;;;;;2.50;2.50;;;;;25.86;48.02;101390.72;5082275;27;51018;-45
2021/08/22 00:09:39;;;;;;;;;2.00;2.00;;;;;25.86;47.95;101378.78;5098322;27;50974;-46
2021/08/22 00:12:04;;;;;;;;;3.50;3.00;;;;;25.87;48.37;101386.84;5118749;27;50994;-47
2021/08/22 00:14:30;;;;;;;;;4.00;2.75;;;;;25.86;48.25;101376.84;5120535;27;51281;-48
2021/08/22 00:16:55;;;;;;;;;2.00;2.00;;;;;25.87;47.90;101374.91;5110848;27;51060;-45
2021/08/22 00:19:20;;;;;;;;;2.00;2.00;;;;;25.86;47.96;101373.22;5106726;27;51030;-47
2021/08/22 00:21:46;;;;;;;;;2.00;2.00;;;;;25.86;48.08;101378.78;5106285;27;51605;-44
2021/08/22 00:24:11;;;;;;;;;6.00;3.25;;;;;25.85;48.00;101380.72;5119480;27;51127;-45
2021/08/22 00:26:37;;;;;;;;;2.00;2.00;;;;;25.85;48.16;101377.09;5118583;27;50919;-46
2021/08/22 00:29:02;;;;;;;;;3.00;3.00;;;;;25.85;48.29;101386.25;5120101;27;51315;-46
2021/08/22 00:31:27;;;;;;;;;4.25;2.50;;;;;25.85;48.01;101383.50;5117283;27;52383;-47
2021/08/22 00:33:53;;;;;;;;;3.00;3.00;;;;;25.85;48.23;101386.25;5120392;27;51069;-48
2021/08/22 00:36:18;;;;;;;;;2.25;1.00;;;;;25.85;48.01;101388.19;5115423;27;50996;-46
2021/08/22 00:38:44;;;;;;;;;4.00;4.00;;;;;25.85;48.31;101390.97;5111542;27;51240;-48
2021/08/22 00:41:11;;;;;;;;;2.00;2.00;;;;;25.86;47.95;101389.88;5110802;27;51727;-46
2021/08/22 00:43:36;;;;;;;;;2.25;2.00;;;;;25.85;48.03;101391.81;5115974;27;51167;-46
2021/08/22 00:46:02;;;;;;;;;3.00;1.50;;;;;25.85;48.16;101388.19;5108024;27;51164;-46
2021/08/22 00:48:30;;;;;;;;;1.75;1.75;;;;;25.84;48.40;101387.31;5086406;27;50928;-45
2021/08/22 00:50:57;;;;;;;;;3.00;3.00;;;;;25.85;48.06;101390.97;5117124;27;51093;-47
2021/08/22 00:53:23;;;;;;;;;3.75;3.50;;;;;25.84;48.56;101397.59;5119438;27;51502;-46
2021/08/22 00:55:49;;;;;;;;;1.75;1.75;;;;;25.84;48.01;101392.88;5112490;27;51338;-47
2021/08/22 00:58:15;;;;;;;;;1.00;1.00;;;;;25.85;48.22;101399.28;5100157;27;51589;-46
2021/08/22 01:00:41;;;;;;;;;3.75;3.25;;;;;25.85;48.09;101400.13;5098936;27;51034;-47
2021/08/22 01:03:19;;;;;;;;;2.25;2.25;;;;;25.85;48.28;101400.13;5115338;27;50934;-46
2021/08/22 01:06:07;;;;;;;;;2.00;2.00;;;;;25.85;47.88;101402.06;5119533;27;51052;-45
2021/08/22 01:08:40;;;;;;;;;2.00;2.00;;;;;25.85;48.13;101404.84;5099169;27;51250;-45
2021/08/22 01:11:13;;;;;;;;;2.25;2.00;;;;;25.85;48.33;101407.63;5107626;27;51851;-46
2021/08/22 01:13:48;;;;;;;;;3.25;3.25;;;;;25.84;48.32;101401.19;5118914;27;51558;-48
2021/08/22 01:16:14;;;;;;;;;2.25;2.25;;;;;25.85;48.36;101404.84;5117559;27;51175;-49
2021/08/22 01:18:43;;;;;;;;;0.00;0.00;;;;;25.85;48.06;101404.84;5100606;27;51015;-45
2021/08/22 01:21:12;;;;;;;;;4.50;3.25;;;;;25.85;48.40;101408.47;5107791;27;52054;-50
2021/08/22 01:23:44;;;;;;;;;2.75;2.00;;;;;25.86;48.11;101410.16;5113153;27;51523;-48
2021/08/22 01:26:11;;;;;;;;;3.00;2.75;;;;;25.85;47.99;101410.41;5116633;27;51025;-44
2021/08/22 01:28:39;;;;;;;;;2.50;2.50;;;;;25.85;48.18;101408.47;5103262;27;51412;-48
2021/08/22 01:31:08;;;;;;;;;1.00;1.00;;;;;25.85;48.18;101408.47;5116017;27;52053;-47
2021/08/22 01:33:34;;;;;;;;;2.00;2.00;;;;;25.85;48.34;101415.94;5100650;27;50982;-46
2021/08/22 01:36:00;;;;;;;;;3.00;3.00;;;;;25.84;48.16;101420.63;5108035;27;51020;-46
2021/08/22 01:38:26;;;;;;;;;3.00;3.00;;;;;25.84;47.71;101423.41;5118953;27;50975;-45
2021/08/22 01:40:53;;;;;;;;;2.50;2.50;;;;;25.84;48.17;101428.09;5116229;27;50983;-45
2021/08/22 01:43:20;;;;;;;;;1.25;1.25;;;;;25.84;47.87;101426.19;5100163;27;51309;-44
2021/08/22 01:45:46;;;;;;;;;1.25;1.25;;;;;25.83;48.31;101420.88;5119244;27;51126;-44
2021/08/22 01:48:13;;;;;;;;;3.25;3.25;;;;;25.82;48.26;101417.25;5100764;27;51024;-47
2021/08/22 01:50:39;;;;;;;;;3.00;3.00;;;;;25.83;48.46;101418.09;5114160;27;51940;-45
2021/08/22 01:53:05;;;;;;;;;2.75;2.50;;;;;25.82;48.00;101411.72;5098808;27;51382;-45
2021/08/22 01:55:32;;;;;;;;;2.75;2.75;;;;;25.82;48.40;101411.72;5103577;27;51726;-53
2021/08/22 01:57:57;;;;;;;;;3.00;3.00;;;;;25.81;48.32;101411.94;5103028;27;51163;-44
2021/08/22 02:00:23;;;;;;;;;2.00;2.00;;;;;25.82;48.42;101416.41;5100481;27;52710;-45
2021/08/22 02:03:09;;;;;;;;;3.00;3.00;;;;;25.81;48.12;101415.56;5117667;27;50981;-45
2021/08/22 02:05:37;;;;;;;;;2.00;2.00;;;;;25.81;48.46;101415.56;5117080;27;50846;-45
2021/08/22 02:08:10;;;;;;;;;2.75;2.25;;;;;25.81;48.15;101426.66;5118172;27;51266;-45
2021/08/22 02:10:42;;;;;;;;;1.00;1.00;;;;;25.82;48.29;101421.97;5100079;27;50959;-44
2021/08/22 02:13:10;;;;;;;;;3.00;2.00;;;;;25.82;48.03;101427.50;5112748;27;50972;-47
2021/08/22 02:15:42;;;;;;;;;3.50;3.00;;;;;25.83;47.94;101429.19;5118015;27;50890;-46
2021/08/22 02:18:12;;;;;;;;;2.00;2.00;;;;;25.81;48.36;101426.66;5081919;27;51242;-45
2021/08/22 02:20:39;;;;;;;;;2.25;2.25;;;;;25.81;48.06;101425.84;5114591;27;51482;-45
2021/08/22 02:23:05;;;;;;;;;2.50;2.50;;;;;25.81;48.15;101434.16;5092602;27;51257;-47
2021/08/22 02:25:31;;;;;;;;;3.50;3.50;;;;;25.81;48.26;101426.66;5114433;27;51309;-44
2021/08/22 02:27:59;;;;;;;;;3.00;2.00;;;;;25.81;48.08;101426.66;5115924;27;50884;-46
2021/08/22 02:30:26;;;;;;;;;3.75;0.75;;;;;25.82;47.89;101433.06;5099162;27;52975;-45
2021/08/22 02:32:53;;;;;;;;;2.00;2.00;;;;;25.81;47.93;101423.06;5118433;27;50813;-44
2021/08/22 02:35:19;;;;;;;;;3.00;3.00;;;;;25.81;48.07;101434.16;5116704;27;51025;-45
2021/08/22 02:37:44;;;;;;;;;2.25;2.25;;;;;25.81;48.18;101425.84;5113461;27;53008;-49
2021/08/22 02:40:09;;;;;;;;;3.00;3.00;;;;;25.81;47.97;101431.38;5099089;27;53680;-45
2021/08/22 02:42:35;;;;;;;;;1.25;1.25;;;;;25.80;48.15;101438.03;5114877;27;51032;-50
2021/08/22 02:45:00;;;;;;;;;3.00;3.00;;;;;25.81;47.60;101446.09;5098200;27;51315;-44
2021/08/22 02:47:25;;;;;;;;;5.25;5.25;;;;;25.79;47.50;101439.97;5105510;27;51265;-44
2021/08/22 02:49:51;;;;;;;;;5.25;2.50;;;;;25.78;47.38;101440.19;5098963;27;51254;-45
2021/08/22 02:52:17;;;;;;;;;5.25;4.00;;;;;25.74;47.13;101437.09;5111828;27;51191;-49
2021/08/22 02:54:42;;;;;;;;;3.00;3.00;;;;;25.71;47.35;101445.88;5116777;27;51150;-47
2021/08/22 02:57:08;;;;;;;;;6.00;4.25;;;;;25.68;47.35;101438.00;5107915;27;51214;-44
2021/08/22 02:59:33;;;;;;;;;3.00;3.00;;;;;25.65;46.99;101441.28;5097392;27;51044;-50
2021/08/22 03:01:58;;;;;;;;;3.50;3.50;;;;;25.63;47.23;101435.94;5105203;27;50974;-49
2021/08/22 03:04:24;;;;;;;;;3.50;2.00;;;;;25.61;47.02;101442.84;5116764;27;51032;-45
2021/08/22 03:06:49;;;;;;;;;3.00;3.00;;;;;25.59;47.00;101445.84;5111345;27;51202;-45
2021/08/22 03:09:14;;;;;;;;;5.00;3.75;;;;;25.57;47.07;101444.41;5103432;27;51893;-44
2021/08/22 03:11:40;;;;;;;;;5.00;3.25;;;;;25.55;46.73;101446.59;5118217;27;51090;-45
2021/08/22 03:14:05;;;;;;;;;5.00;4.00;;;;;25.52;46.86;101442.34;5118438;27;51172;-45
2021/08/22 03:16:31;;;;;;;;;3.25;3.25;;;;;25.50;46.80;101441.75;5115473;27;51273;-47
2021/08/22 03:18:56;;;;;;;;;4.25;2.50;;;;;25.49;46.59;101437.28;5121217;27;51823;-46
2021/08/22 03:21:22;;;;;;;;;4.50;3.75;;;;;25.46;46.58;101440.56;5117686;27;51215;-45
2021/08/22 03:23:47;;;;;;;;;4.00;4.00;;;;;25.45;46.37;101436.09;5110866;27;51199;-48
2021/08/22 03:26:13;;;;;;;;;3.25;2.50;;;;;25.44;46.43;101436.34;5104920;27;51048;-47
2021/08/22 03:28:38;;;;;;;;;2.75;2.75;;;;;25.42;46.15;101438.50;5102774;27;52598;-48
2021/08/22 03:31:04;;;;;;;;;7.00;5.25;;;;;25.39;46.33;101434.28;5121611;27;50965;-48
2021/08/22 03:33:29;;;;;;;;;6.75;5.00;;;;;25.38;46.66;101443.69;5120998;27;51294;-44
2021/08/22 03:35:54;;;;;;;;;4.75;4.00;;;;;25.37;46.28;101436.47;5100908;27;51223;-47
2021/08/22 03:38:20;;;;;;;;;4.25;3.25;;;;;25.35;46.14;101435.03;5100679;27;52578;-46
2021/08/22 03:40:45;;;;;;;;;5.00;4.00;;;;;25.33;46.00;101446.34;5118723;27;51128;-47
2021/08/22 03:43:10;;;;;;;;;5.50;4.00;;;;;25.31;46.10;101434.63;5119042;27;51067;-46
2021/08/22 03:45:36;;;;;;;;;4.25;4.25;;;;;25.29;46.09;101429.34;5101463;27;51033;-45
2021/08/22 03:48:02;;;;;;;;;7.75;4.50;;;;;25.28;45.88;101446.22;5119923;27;50987;-44
2021/08/22 03:50:27;;;;;;;;;4.00;4.00;;;;;25.25;46.05;101447.53;5118254;27;50868;-44
2021/08/22 03:52:53;;;;;;;;;5.00;3.00;;;;;25.24;45.67;101442.25;5100573;27;50831;-47
2021/08/22 03:55:19;;;;;;;;;5.75;5.00;;;;;25.22;46.07;101456.34;5100881;27;51284;-48
2021/08/22 03:57:44;;;;;;;;;4.75;4.50;;;;;25.21;45.79;101451.03;5115938;27;51225;-45
2021/08/22 04:00:11;;;;;;;;;5.00;5.00;;;;;25.19;45.74;101456.81;5119722;27;51011;-43
2021/08/22 04:02:36;;;;;;;;;5.00;4.25;;;;;25.16;45.95;101451.75;5102659;27;50998;-45
2021/08/22 04:05:04;;;;;;;;;5.75;5.75;;;;;25.15;45.79;101444.53;5081619;27;51263;-45
2021/08/22 04:07:29;;;;;;;;;4.00;4.00;;;;;25.14;45.67;101448.38;5103233;27;51130;-44
2021/08/22 04:09:55;;;;;;;;;6.50;5.00;;;;;25.13;45.58;101454.16;5100063;27;51089;-44
2021/08/22 04:12:21;;;;;;;;;6.25;5.50;;;;;25.11;45.58;101453.53;5100516;27;50948;-45
2021/08/22 04:14:46;;;;;;;;;5.00;4.00;;;;;25.10;45.58;101454.63;5109361;27;50942;-44
2021/08/22 04:17:12;;;;;;;;;5.25;5.00;;;;;25.08;45.76;101454.03;5115159;27;51518;-46
2021/08/22 04:19:37;;;;;;;;;6.00;2.25;;;;;25.06;45.65;101462.59;5101546;27;51214;-45
2021/08/22 04:22:03;;;;;;;;;5.75;5.75;;;;;25.03;45.91;101463.91;5101616;27;51182;-46
2021/08/22 04:24:29;;;;;;;;;4.00;4.00;;;;;25.00;45.63;101456.03;5105492;27;51023;-45
2021/08/22 04:26:55;;;;;;;;;5.00;5.00;;;;;25.00;45.46;101464.34;5101774;27;51974;-46
2021/08/22 04:29:21;;;;;;;;;6.25;4.50;;;;;24.97;45.49;101466.75;5106896;27;51544;-46
2021/08/22 04:31:46;;;;;;;;;8.00;6.00;;;;;24.96;45.59;101462.28;5120801;27;51073;-44
2021/08/22 04:34:11;;;;;;;;;5.75;4.25;;;;;24.95;45.70;101457.84;5119474;27;50878;-47
2021/08/22 04:36:37;;;;;;;;;3.00;3.00;;;;;24.92;45.79;101461.09;5114879;27;51906;-45
2021/08/22 04:41:44;;;;;;;;;4.00;4.00;;;;;24.90;45.48;101460.47;5097095;27;51436;-61
2021/08/22 04:44:10;;;;;;;;;5.25;5.00;;;;;24.88;45.34;101459.84;5095236;27;52568;-61
2021/08/22 04:46:35;;;;;;;;;8.75;5.00;;;;;24.87;45.56;101460.94;5092716;27;51904;-62
2021/08/22 04:49:01;;;;;;;;;3.00;3.00;;;;;24.85;45.51;101454.78;5071163;28;51130;-61
2021/08/22 04:51:26;;;;;;;;;7.75;4.75;;;;;24.83;45.60;101456.97;5075228;28;51098;-61
2021/08/22 04:53:52;;;;;;;;;3.50;3.25;;;;;24.80;45.16;101462.97;5076945;28;51249;-61
2021/08/22 04:56:17;;;;;;;;;6.75;5.00;;;;;24.79;45.28;101462.13;5076926;27;50918;-61
2021/08/22 04:58:43;;;;;;;;;3.50;3.50;;;;;24.75;45.10;101461.75;5075730;28;51920;-61
2021/08/22 05:01:08;;;;;;;;;3.50;3.50;;;;;24.73;45.27;101475.00;5067476;27;51375;-61
2021/08/22 05:03:33;;;;;;;;;4.00;2.75;;;;;24.71;45.26;101477.16;5068065;28;51148;-61
2021/08/22 05:05:59;;;;;;;;;6.50;4.25;;;;;24.68;45.37;101469.31;5076960;28;59314;-61
2021/08/22 05:08:24;;;;;;;;;5.75;5.00;;;;;24.68;44.98;101482.31;5060682;27;51160;-61
2021/08/22 05:10:50;;;;;;;;;4.25;3.25;;;;;24.66;44.96;101482.56;5078019;27;51048;-61
2021/08/22 05:13:16;;;;;;;;;6.50;4.75;;;;;24.64;45.20;101478.34;5077400;27;51056;-61
2021/08/22 05:15:41;;;;;;;;;5.00;5.00;;;;;24.63;45.24;101480.28;5076083;27;51157;-61
2021/08/22 05:18:07;;;;;;;;;6.50;6.00;;;;;24.61;44.90;101484.34;5061381;27;51119;-61
2021/08/22 05:20:33;;;;;;;;;6.25;4.00;;;;;24.58;44.99;101474.56;5073357;28;51087;-61
2021/08/22 05:22:58;;;;;;;;;6.00;5.00;;;;;24.57;44.83;101475.66;5077982;27;51036;-61
2021/08/22 05:25:23;;;;;;;;;7.50;4.75;;;;;24.56;45.13;101467.59;5075186;27;51842;-61
2021/08/22 05:27:49;;;;;;;;;5.00;5.00;;;;;24.55;45.22;101482.50;5077101;27;51049;-61
2021/08/22 05:30:14;;;;;;;;;7.25;5.00;;;;;24.53;45.19;101479.13;5075981;28;51159;-61
2021/08/22 05:32:39;;;;;;;;;3.50;3.50;;;;;24.52;45.39;101481.06;5077584;27;50926;-60
2021/08/22 05:35:05;;;;;;;;;5.50;4.00;;;;;24.51;45.09;101482.16;5074991;28;51787;-60
2021/08/22 05:37:31;;;;;;;;;5.00;5.00;;;;;24.53;45.12;101479.13;5074349;28;51054;-60
2021/08/22 05:39:56;;;;;;;;;5.50;4.00;;;;;24.52;45.23;101481.06;5077268;28;50899;-59
2021/08/22 05:42:22;;;;;;;;;6.25;4.50;;;;;24.53;45.48;101487.44;5076542;27;51325;-60
2021/08/22 05:44:47;;;;;;;;;5.25;3.00;;;;;24.55;45.84;101488.06;5076415;27;51955;-59
2021/08/22 05:47:18;;;;;;;;;3.50;3.50;;;;;24.54;45.30;101484.44;5076343;28;51065;-60
2021/08/22 05:49:44;;;;;;;;;3.00;2.50;;;;;24.55;45.42;101493.59;5074740;27;51096;-60
2021/08/22 05:52:09;;;;;;;;;4.25;3.25;;;;;24.55;45.47;101493.59;5073835;28;51139;-60
2021/08/22 05:54:36;;;;;;;;;3.50;3.00;;;;;24.55;45.69;101494.44;5076010;28;53138;-60
2021/08/22 05:57:02;;;;;;;;;6.25;5.00;;;;;24.55;45.79;101488.06;5075128;27;51528;-60
2021/08/22 05:59:27;;;;;;;;;3.00;3.00;;;;;24.56;45.73;101490.59;5076400;28;51046;-60
2021/08/22 06:01:52;;;;;;;;;4.25;4.25;;;;;24.55;45.76;101490.81;5077227;27;50851;-60
2021/08/22 06:04:18;;;;;;;;;4.25;4.25;;;;;24.55;45.47;101504.66;5074648;28;57514;-60
2021/08/22 06:06:43;;;;;;;;;4.00;4.00;;;;;24.55;45.98;101499.97;5076117;28;51055;-60
2021/08/22 06:09:08;;;;;;;;;6.00;3.75;;;;;24.55;45.84;101505.50;5075946;27;51122;-61
2021/08/22 06:11:34;;;;;;;;;5.00;3.00;;;;;24.53;45.58;101513.22;5076796;28;51057;-60
2021/08/22 06:13:59;;;;;;;;;5.50;3.75;;;;;24.55;46.00;101515.75;5074976;27;51813;-60
2021/08/22 06:16:24;;;;;;;;;5.50;4.25;;;;;24.54;45.79;101519.59;5075590;28;57287;-60
2021/08/22 06:18:50;;;;;;;;;4.25;2.50;;;;;24.54;45.18;101520.44;5076060;28;51138;-60
2021/08/22 06:21:15;;;;;;;;;5.75;5.00;;;;;24.55;45.75;101524.06;5075344;28;51406;-60
2021/08/22 06:23:41;;;;;;;;;3.25;2.75;;;;;24.52;45.75;101519.84;5073427;28;51910;-60
2021/08/22 06:26:07;;;;;;;;;5.25;3.00;;;;;24.53;45.34;101523.44;5074577;27;51437;-60
2021/08/22 06:28:32;;;;;;;;;4.00;4.00;;;;;24.51;45.54;101526.47;5074644;28;51377;-60
2021/08/22 06:30:57;;;;;;;;;6.50;4.00;;;;;24.51;45.87;101532.00;5067982;28;51331;-60
2021/08/22 06:33:23;;;;;;;;;4.00;2.75;;;;;24.50;45.29;101530.31;5065527;28;51133;-60
2021/08/22 06:35:48;;;;;;;;;4.25;4.25;;;;;24.47;45.49;101531.59;5067399;27;51244;-60
2021/08/22 06:38:13;;;;;;;;;6.75;4.75;;;;;24.43;45.19;101530.38;5068662;28;51247;-60
2021/08/22 06:40:39;;;;;;;;;4.75;4.75;;;;;24.40;45.46;101524.47;5065652;28;51269;-59
2021/08/22 06:43:04;;;;;;;;;5.00;5.00;;;;;24.37;45.45;101524.91;5068180;27;51114;-59
2021/08/22 06:45:29;;;;;;;;;4.75;4.25;;;;;24.36;45.67;101529.63;5071318;27;51142;-60
2021/08/22 06:47:55;;;;;;;;;5.00;3.25;;;;;24.34;45.57;101529.00;5070000;27;51510;-59
2021/08/22 06:50:23;;;;;;;;;8.00;5.00;;;;;24.34;45.55;101544.78;5071877;28;51436;-59
2021/08/22 06:52:49;;;;;;;;;4.50;3.00;;;;;24.34;45.90;101544.78;5074603;28;51225;-58
2021/08/22 06:55:14;;;;;;;;;5.00;5.00;;;;;24.34;46.12;101540.06;5071392;27;51125;-60
2021/08/22 06:57:39;;;;;;;;;5.00;4.00;;;;;24.35;46.60;101543.69;5069852;28;51072;-59
2021/08/22 07:00:05;;;;;;;;;4.75;4.75;;;;;24.35;46.78;101546.47;5072200;27;51103;-61
2021/08/22 07:02:31;;;;;;;;;4.00;4.00;;;;;24.35;46.30;101546.47;5072680;27;51746;-62
2021/08/22 07:04:56;;;;;;;;;6.75;4.00;;;;;24.34;46.36;101553.09;5073043;28;51045;-61
2021/08/22 07:07:21;;;;;;;;;7.50;5.00;;;;;24.35;46.67;101560.31;5064604;28;51261;-60
2021/08/22 07:09:46;;;;;;;;;5.50;3.00;;;;;24.35;46.48;101561.16;5075944;27;51162;-59
2021/08/22 07:12:14;;;;;;;;;4.75;3.00;;;;;24.36;46.42;101564.75;5075698;28;51789;-59
2021/08/22 07:14:39;;;;;;;;;2.75;2.75;;;;;24.37;46.09;101564.53;5075582;27;50973;-60
2021/08/22 07:17:05;;;;;;;;;4.00;3.50;;;;;24.37;46.48;101567.31;5062871;27;51052;-62
2021/08/22 07:19:30;;;;;;;;;9.75;5.00;;;;;24.35;46.24;101555.63;5055325;28;51240;-60
2021/08/22 07:21:56;;;;;;;;;4.50;4.50;;;;;24.36;46.03;101562.00;5071997;28;52572;-59
2021/08/22 07:24:21;;;;;;;;;3.00;2.00;;;;;24.36;46.33;101573.91;5067503;27;50902;-59
2021/08/22 07:26:47;;;;;;;;;7.00;4.00;;;;;24.36;46.32;101570.31;5063924;28;51533;-59
2021/08/22 07:29:12;;;;;;;;;3.00;3.00;;;;;24.37;46.13;101572.00;5075284;27;51230;-60
2021/08/22 07:31:37;;;;;;;;;3.00;2.00;;;;;24.37;46.08;101583.06;5066913;27;53341;-60
2021/08/22 07:34:02;;;;;;;;;2.75;2.25;;;;;24.36;45.67;101578.59;5073737;28;54118;-59
2021/08/22 07:36:28;;;;;;;;;5.25;3.00;;;;;24.36;46.25;101592.47;5073632;28;51032;-60
2021/08/22 07:38:53;;;;;;;;;4.00;2.50;;;;;24.35;46.07;101576.91;5072834;28;51530;-61
2021/08/22 07:41:19;;;;;;;;;2.25;2.25;;;;;24.35;45.98;101582.47;5072761;28;51770;-60
2021/08/22 07:43:44;;;;;;;;;3.50;2.50;;;;;24.34;45.77;101592.69;5073360;27;51215;-61
2021/08/22 07:46:09;;;;;;;;;4.00;4.00;;;;;24.36;46.13;101578.59;5071407;28;50970;-61
2021/08/22 07:48:34;;;;;;;;;4.00;4.00;;;;;24.34;46.05;101587.16;5067525;28;51168;-61
2021/08/22 07:51:00;;;;;;;;;4.75;3.00;;;;;24.34;46.19;101580.78;5073565;27;51719;-60
2021/08/22 07:53:25;;;;;;;;;5.50;3.25;;;;;24.35;45.92;101582.47;5071348;27;51091;-60
2021/08/22 07:55:51;;;;;;;;;5.00;2.75;;;;;24.36;46.36;101573.06;5068693;28;51542;-59
2021/08/22 07:58:16;;;;;;;;;3.50;3.50;;;;;24.37;46.93;101574.75;5069159;28;51385;-59
2021/08/22 08:00:41;;;;;;;;;4.25;3.50;;;;;24.41;46.99;101576.00;5075546;28;51701;-59
2021/08/22 08:03:07;;;;;;;;;4.25;3.75;;;;;24.42;47.21;101591.53;5074233;28;51036;-58
2021/08/22 08:05:32;;;;;;;;;3.50;2.25;;;;;24.44;47.10;101590.22;5067685;27;51117;-60
2021/08/22 08:07:58;;;;;;;;;4.50;4.00;;;;;24.50;47.16;101590.41;5076828;27;51182;-61
2021/08/22 08:10:24;;;;;;;;;5.00;3.50;;;;;24.52;46.99;101588.25;5074324;28;51870;-60
2021/08/22 08:12:50;;;;;;;;;2.00;2.00;;;;;24.54;46.95;101586.91;5074491;28;51093;-60
2021/08/22 08:15:15;;;;;;;;;3.75;2.50;;;;;24.56;46.66;101595.00;5073162;27;51233;-60
2021/08/22 08:17:40;;;;;;;;;4.25;3.00;;;;;24.55;46.87;101591.38;5074989;28;51182;-59
2021/08/22 08:20:06;;;;;;;;;5.25;4.00;;;;;24.56;46.67;101601.38;5073917;28;51939;-61
2021/08/22 08:22:31;;;;;;;;;5.00;4.75;;;;;24.57;46.72;101593.91;5074647;28;51239;-59
2021/08/22 08:24:57;;;;;;;;;2.25;2.25;;;;;24.57;46.51;101597.53;5068661;28;51322;-58
2021/08/22 08:27:23;;;;;;;;;4.50;4.50;;;;;24.57;46.57;101605.84;5075742;27;51361;-58
2021/08/22 08:29:50;;;;;;;;;4.00;3.00;;;;;24.58;46.85;101599.22;5073600;28;52003;-59
2021/08/22 08:32:15;;;;;;;;;3.25;2.75;;;;;24.59;46.67;101597.28;5075850;28;51527;-59
2021/08/22 08:34:40;;;;;;;;;6.50;4.00;;;;;24.60;46.62;101612.84;5075895;27;51119;-60
2021/08/22 08:37:06;;;;;;;;;5.75;2.75;;;;;24.61;46.68;101601.53;5073245;27;51061;-59
2021/08/22 08:39:31;;;;;;;;;5.50;3.50;;;;;24.62;46.44;101605.16;5074013;28;51524;-61
2021/08/22 08:42:42;;;;;;;;;5.00;3.00;;;;;24.64;46.61;101614.91;5072475;28;51162;-60
2021/08/22 08:45:12;;;;;;;;;3.00;2.75;;;;;24.63;46.77;101607.69;5047183;28;51087;-60
2021/08/22 08:47:40;;;;;;;;;3.00;3.00;;;;;24.65;46.72;101611.06;5069738;27;51159;-59
2021/08/22 08:50:23;;;;;;;;;3.00;3.00;;;;;24.67;46.31;101613.59;5074302;28;52105;-62
2021/08/22 08:53:27;;;;;;;;;5.00;3.00;;;;;24.67;46.28;101617.22;5074949;28;51325;-62
2021/08/22 08:56:11;;;;;;;;;3.00;3.00;;;;;24.68;46.33;101610.59;5044305;28;51461;-61
2021/08/22 08:58:38;;;;;;;;;5.25;2.50;;;;;24.68;46.03;101621.69;5059924;28;51250;-61
2021/08/22 09:01:03;;;;;;;;;3.00;2.75;;;;;24.68;45.93;101612.53;5075397;27;52000;-61
2021/08/22 09:03:29;;;;;;;;;3.25;3.25;;;;;24.66;46.13;101607.22;5077477;28;51052;-61
2021/08/22 09:06:36;;;;;;;;;4.50;3.25;;;;;24.67;45.85;101613.59;5075711;27;51468;-61
2021/08/22 09:09:32;;;;;;;;;3.50;2.00;;;;;24.68;45.81;101615.28;5075814;27;51264;-62
2021/08/22 09:12:28;;;;;;;;;3.50;3.50;;;;;24.66;46.31;101612.75;5072851;28;51952;-62
2021/08/22 09:15:31;;;;;;;;;2.00;2.00;;;;;24.68;46.36;101618.91;5076277;28;51281;-65
2021/08/22 09:18:27;;;;;;;;;2.25;2.00;;;;;24.70;46.16;101615.94;5069425;28;51888;-62
2021/08/22 09:21:31;;;;;;;;;5.00;2.00;;;;;24.70;46.26;101614.00;5073962;27;51142;-62
2021/08/22 09:24:31;;;;;;;;;4.25;3.00;;;;;24.71;46.40;101620.41;5068957;28;51004;-60
2021/08/22 09:27:24;;;;;;;;;4.50;3.00;;;;;24.71;46.49;101617.63;5072504;28;51112;-63
2021/08/22 09:30:26;;;;;;;;;3.00;1.00;;;;;24.72;46.05;101622.94;5073570;27;51223;-63
2021/08/22 09:33:26;;;;;;;;;3.25;2.50;;;;;24.71;46.19;101623.16;5064467;28;51291;-64
2021/08/22 09:36:25;;;;;;;;;4.00;4.00;;;;;24.71;46.01;101617.63;5056119;28;51081;-63
2021/08/22 09:39:21;;;;;;;;;2.00;2.00;;;;;24.70;46.04;101608.47;5074190;28;51447;-63
2021/08/22 09:42:25;;;;;;;;;4.75;3.00;;;;;24.70;46.11;101616.78;5077093;27;51141;-63
2021/08/22 09:45:41;;;;;;;;;6.50;4.00;;;;;24.72;45.98;101627.63;5074372;28;51001;-63
2021/08/22 09:48:35;;;;;;;;;3.00;3.00;;;;;24.72;45.98;101622.09;5067279;28;51751;-63
2021/08/22 09:51:35;;;;;;;;;5.25;2.50;;;;;24.71;45.90;101625.94;5075282;28;51289;-63
2021/08/22 09:54:22;;;;;;;;;4.75;3.25;;;;;24.70;45.84;101629.78;5072026;28;51154;-63
2021/08/22 09:57:12;;;;;;;;;1.50;1.50;;;;;24.69;45.76;101630.84;5074745;28;51071;-63
2021/08/22 10:00:14;;;;;;;;;2.00;2.00;;;;;24.69;45.62;101636.38;5076265;27;51001;-63
2021/08/22 10:03:01;;;;;;;;;2.00;2.00;;;;;24.69;45.76;101637.22;5072819;28;51524;-63
2021/08/22 10:06:05;;;;;;;;;2.50;2.00;;;;;24.68;45.59;101638.31;5062808;28;50944;-63
2021/08/22 10:08:43;;;;;;;;;2.25;2.25;;;;;24.68;45.42;101634.69;5074109;27;51167;-64
2021/08/22 10:11:12;;;;;;;;;4.00;2.00;;;;;24.67;45.24;101633.84;5059587;28;51859;-63
2021/08/22 10:13:37;;;;;;;;;2.00;2.00;;;;;24.67;45.70;101639.38;5076569;27;51056;-63
2021/08/22 10:16:03;;;;;;;;;3.00;3.00;;;;;24.68;45.16;101634.69;5075655;27;50996;-59
2021/08/22 10:18:29;;;;;;;;;2.00;2.00;;;;;24.66;45.05;101623.84;5063351;27;51417;-60
2021/08/22 10:21:07;;;;;;;;;1.25;1.00;;;;;24.67;45.41;101627.47;5060716;28;51716;-60
2021/08/22 10:23:33;;;;;;;;;2.50;2.50;;;;;24.67;45.22;101628.31;5074796;27;51513;-60
2021/08/22 10:25:59;;;;;;;;;1.00;1.00;;;;;24.67;45.38;101633.84;5073479;27;51079;-60
2021/08/22 10:28:47;;;;;;;;;4.00;3.00;;;;;24.68;44.89;101631.91;5062390;28;51104;-60
2021/08/22 10:31:13;;;;;;;;;3.25;1.00;;;;;24.67;45.04;101633.84;5056003;28;51142;-60
2021/08/22 10:34:14;;;;;;;;;1.00;1.00;;;;;24.66;45.04;101626.63;5055706;28;51092;-60
2021/08/22 10:36:40;;;;;;;;;3.50;2.00;;;;;24.67;44.92;101625.53;5048630;28;51089;-59
2021/08/22 10:39:26;;;;;;;;;1.00;1.00;;;;;24.67;44.65;101631.06;5055809;28;51005;-60
2021/08/22 10:41:59;;;;;;;;;3.00;1.25;;;;;24.67;44.85;101622.75;5055439;28;51845;-60
2021/08/22 10:44:34;;;;;;;;;1.00;1.00;;;;;24.67;44.83;101616.38;5073843;28;51158;-60
2021/08/22 10:46:59;;;;;;;;;1.00;1.00;;;;;24.66;44.60;101625.78;5076094;27;51123;-59
2021/08/22 10:49:49;;;;;;;;;1.00;1.00;;;;;24.67;44.94;101631.06;5074089;28;51170;-59
2021/08/22 10:52:33;;;;;;;;;1.00;1.00;;;;;24.67;44.92;101619.16;5075679;28;51025;-60
2021/08/22 10:55:11;;;;;;;;;1.00;1.00;;;;;24.67;44.79;101625.53;5075514;28;51298;-60
2021/08/22 10:57:45;;;;;;;;;2.00;1.00;;;;;24.69;44.76;101622.53;5074016;28;51263;-59
2021/08/22 11:00:36;;;;;;;;;4.75;2.75;;;;;24.70;44.93;101618.72;5067337;27;51108;-62
2021/08/22 11:03:04;;;;;;;;;2.00;1.00;;;;;24.70;44.45;101619.53;5054245;28;51697;-57
2021/08/22 11:05:35;;;;;;;;;2.00;0.75;;;;;24.72;44.66;101614.63;5073515;27;51386;-58
2021/08/22 11:08:17;;;;;;;;;2.75;2.00;;;;;24.72;44.69;101609.06;5072900;27;51035;-57
2021/08/22 11:11:05;;;;;;;;;1.25;1.00;;;;;24.73;44.88;101612.69;5072758;28;51005;-61
2021/08/22 11:13:37;;;;;;;;;5.25;2.25;;;;;24.73;44.67;101610.75;5065607;28;51966;-59
2021/08/22 11:16:05;;;;;;;;;1.25;1.25;;;;;24.74;44.52;101604.13;5073066;27;51274;-59
2021/08/22 11:18:30;;;;;;;;;2.75;2.75;;;;;24.75;44.67;101611.38;5074797;27;51202;-60
2021/08/22 11:20:55;;;;;;;;;4.00;2.00;;;;;24.75;44.88;101597.50;5073234;28;51182;-61
2021/08/22 11:23:21;;;;;;;;;2.75;1.50;;;;;24.76;44.53;101601.13;5059362;27;52215;-59
2021/08/22 11:25:57;;;;;;;;;2.00;2.00;;;;;24.77;44.73;101602.81;5064592;27;51422;-58
2021/08/22 11:28:22;;;;;;;;;1.00;1.00;;;;;24.78;44.41;101610.06;5068626;28;51075;-61
2021/08/22 11:30:48;;;;;;;;;1.75;1.75;;;;;24.78;44.44;101612.81;5073434;28;51342;-59
2021/08/22 11:33:14;;;;;;;;;2.50;2.50;;;;;24.79;44.49;101610.91;5070192;28;51246;-59
2021/08/22 11:35:44;;;;;;;;;2.50;2.50;;;;;24.80;44.41;101612.59;5073347;28;51111;-58
2021/08/22 11:38:11;;;;;;;;;3.50;3.50;;;;;24.81;44.57;101619.84;5077690;28;51202;-59
2021/08/22 11:40:37;;;;;;;;;1.50;1.50;;;;;24.81;44.40;101606.84;5076918;28;53194;-58